Time;durP1;ratioP1;P1;durP2;ratioP2;P2;SDS_P1;SDS_P2;PMS_P1;PMS_P2;Temp;Humidity;BMP_temperature;BMP_pressure;BME280_temperature;BME280_humidity;BME280_pressure;Samples;Min_cycle;Max_cycle;Signal;HPM_P1;HPM_P2
2024/01/31 00:00:50;;;;;;;12.27;7.55;;;;;;;3.46;nan;97432.88;2065628;28;20406;-61
2024/01/31 00:01:51;;;;;;;12.80;7.68;;;;;;;3.44;nan;97434.56;2065046;28;20057;-61
2024/01/31 00:02:52;;;;;;;13.38;6.70;;;;;;;3.41;nan;97432.84;2065527;28;20050;-61
2024/01/31 00:03:53;;;;;;;11.27;6.63;;;;;;;3.38;nan;97424.28;2065806;28;20038;-61
2024/01/31 00:04:55;;;;;;;11.52;7.20;;;;;;;3.32;nan;97425.13;2065649;28;20518;-61
2024/01/31 00:05:56;;;;;;;11.25;6.50;;;;;;;3.30;nan;97427.66;2065734;28;20053;-61
2024/01/31 00:06:57;;;;;;;12.82;7.30;;;;;;;3.24;nan;97425.06;2064809;28;20386;-61
2024/01/31 00:07:58;;;;;;;10.77;6.72;;;;;;;3.21;nan;97431.91;2064708;28;20080;-61
2024/01/31 00:09:00;;;;;;;9.57;6.75;;;;;;;3.18;nan;97426.75;2056941;28;20058;-61
2024/01/31 00:10:03;;;;;;;13.98;6.85;;;;;;;3.14;nan;97431.00;2056897;28;20054;-61
2024/01/31 00:11:06;;;;;;;10.57;6.70;;;;;;;3.11;nan;97433.56;2065359;28;20057;-60
2024/01/31 00:12:07;;;;;;;14.90;8.02;;;;;;;3.06;nan;97430.97;2064690;28;20054;-61
2024/01/31 00:13:08;;;;;;;12.50;7.32;;;;;;;3.06;nan;97433.53;2065549;28;20053;-62
2024/01/31 00:14:10;;;;;;;12.80;7.65;;;;;;;3.03;nan;97425.81;2065527;28;20090;-61
2024/01/31 00:15:11;;;;;;;11.85;7.25;;;;;;;3.01;nan;97430.09;2064748;28;20058;-61
2024/01/31 00:16:15;;;;;;;12.88;7.57;;;;;;;3.01;nan;97426.66;2065578;28;20049;-61
2024/01/31 00:17:16;;;;;;;13.30;7.35;;;;;;;3.00;nan;97427.53;2065611;28;20038;-61
2024/01/31 00:18:18;;;;;;;11.40;7.00;;;;;;;3.05;nan;97430.97;2065535;28;20042;-61
2024/01/31 00:19:19;;;;;;;13.00;7.28;;;;;;;3.05;nan;97424.13;2064903;28;20050;-61
2024/01/31 00:20:20;;;;;;;14.52;8.30;;;;;;;3.03;nan;97428.41;2065758;28;20038;-62
2024/01/31 00:21:21;;;;;;;14.88;7.55;;;;;;;3.04;nan;97418.97;2065703;28;20394;-61
2024/01/31 00:22:22;;;;;;;11.80;7.40;;;;;;;3.04;nan;97424.97;2065430;28;20038;-61
2024/01/31 00:23:23;;;;;;;11.55;7.57;;;;;;;3.00;nan;97424.97;2065027;28;20073;-61
2024/01/31 00:24:24;;;;;;;13.15;7.78;;;;;;;2.96;nan;97420.66;2065530;28;20140;-60
2024/01/31 00:25:26;;;;;;;13.32;7.85;;;;;;;2.93;nan;97423.19;2066294;28;20045;-61
2024/01/31 00:26:27;;;;;;;12.32;7.03;;;;;;;2.90;nan;97424.03;2068454;28;20474;-61
2024/01/31 00:27:28;;;;;;;11.77;7.80;;;;;;;2.95;nan;97424.06;2067801;28;20049;-61
2024/01/31 00:28:29;;;;;;;15.57;8.57;;;;;;;2.95;nan;97424.06;2068473;28;20375;-61
2024/01/31 00:29:30;;;;;;;13.45;7.65;;;;;;;2.90;nan;97425.75;2067604;28;20038;-61
2024/01/31 00:30:31;;;;;;;13.40;7.68;;;;;;;2.89;nan;97419.78;2068519;28;20050;-62
2024/01/31 00:31:33;;;;;;;12.43;7.18;;;;;;;2.87;nan;97417.19;2068181;28;20041;-61
2024/01/31 00:32:34;;;;;;;13.75;7.25;;;;;;;2.86;nan;97420.59;2068323;28;20034;-61
2024/01/31 00:33:35;;;;;;;12.73;6.90;;;;;;;2.87;nan;97421.47;2068204;28;20042;-61
2024/01/31 00:34:36;;;;;;;11.10;6.55;;;;;;;2.96;nan;97424.06;2068107;28;20050;-61
2024/01/31 00:35:37;;;;;;;12.02;7.63;;;;;;;3.03;nan;97424.97;2068492;28;20471;-61
2024/01/31 00:36:38;;;;;;;11.55;7.88;;;;;;;3.04;nan;97424.97;2067950;28;20042;-61
2024/01/31 00:37:40;;;;;;;15.40;8.07;;;;;;;2.98;nan;97427.50;2067308;28;20391;-61
2024/01/31 00:38:41;;;;;;;11.98;7.32;;;;;;;2.95;nan;97418.94;2068329;28;20030;-61
2024/01/31 00:39:42;;;;;;;13.68;7.57;;;;;;;2.90;nan;97418.91;2068446;28;20065;-61
2024/01/31 00:40:43;;;;;;;13.40;7.47;;;;;;;2.81;nan;97426.56;2051368;29;20058;-61
2024/01/31 00:41:45;;;;;;;13.73;7.30;;;;;;;2.80;nan;97419.69;2051736;28;20503;-61
2024/01/31 00:42:46;;;;;;;11.23;7.57;;;;;;;2.67;nan;97415.34;2068260;28;20042;-61
2024/01/31 00:43:47;;;;;;;15.18;7.93;;;;;;;2.64;nan;97423.88;2067939;28;20390;-61
2024/01/31 00:44:48;;;;;;;14.93;7.90;;;;;;;2.60;nan;97425.56;2068251;28;20038;-61
2024/01/31 00:45:49;;;;;;;14.13;7.65;;;;;;;2.60;nan;97419.59;2067947;28;20046;-61
2024/01/31 00:46:50;;;;;;;13.18;8.13;;;;;;;2.57;nan;97422.13;2068352;28;20046;-61
2024/01/31 00:47:51;;;;;;;12.57;7.47;;;;;;;2.54;nan;97430.66;2068328;28;20042;-61
2024/01/31 00:48:53;;;;;;;16.75;8.98;;;;;;;2.48;nan;97425.47;2067361;28;20067;-62
2024/01/31 00:49:55;;;;;;;16.77;8.77;;;;;;;2.47;nan;97428.88;2068217;28;20064;-61
2024/01/31 00:50:56;;;;;;;12.75;7.65;;;;;;;2.52;nan;97431.50;2067474;28;20073;-61
2024/01/31 00:51:57;;;;;;;12.10;7.50;;;;;;;2.50;nan;97430.63;2068142;28;20034;-61
2024/01/31 00:52:58;;;;;;;12.77;7.45;;;;;;;2.49;nan;97431.47;2068284;28;20054;-61
2024/01/31 00:54:00;;;;;;;10.30;7.00;;;;;;;2.42;nan;97433.97;2059801;28;20054;-61
2024/01/31 00:55:02;;;;;;;14.70;8.50;;;;;;;2.41;nan;97436.53;2059546;28;20038;-61
2024/01/31 00:56:03;;;;;;;12.20;7.40;;;;;;;2.41;nan;97436.53;2067491;28;20054;-61
2024/01/31 00:57:05;;;;;;;13.93;7.93;;;;;;;2.36;nan;97439.06;2068226;28;20347;-61
2024/01/31 00:58:06;;;;;;;15.13;8.13;;;;;;;2.32;nan;97437.31;2067733;28;20375;-61
2024/01/31 00:59:07;;;;;;;14.00;8.43;;;;;;;2.22;nan;97435.53;2068172;28;20034;-61
2024/01/31 01:00:09;;;;;;;15.88;8.23;;;;;;;2.20;nan;97437.22;2068227;28;20038;-61
2024/01/31 01:01:10;;;;;;;14.45;8.13;;;;;;;2.22;nan;97440.66;2067260;28;20054;-61
2024/01/31 01:02:11;;;;;;;12.60;7.20;;;;;;;2.23;nan;97442.38;2067546;28;20426;-61
2024/01/31 01:03:12;;;;;;;13.15;7.47;;;;;;;2.24;nan;97441.50;2068069;28;20053;-61
2024/01/31 01:04:13;;;;;;;15.05;8.70;;;;;;;2.18;nan;97441.47;2067833;28;20050;-60
2024/01/31 01:05:14;;;;;;;12.63;7.72;;;;;;;2.12;nan;97443.97;2068276;28;20046;-61
2024/01/31 01:06:15;;;;;;;18.50;8.32;;;;;;;2.13;nan;97441.41;2067801;28;20054;-61
2024/01/31 01:07:16;;;;;;;14.75;7.82;;;;;;;2.11;nan;97437.13;2067590;28;20054;-61
2024/01/31 01:08:18;;;;;;;13.05;7.75;;;;;;;2.07;nan;97435.41;2068207;28;20402;-61
2024/01/31 01:09:19;;;;;;;11.77;7.70;;;;;;;2.18;nan;97439.75;2068206;28;20042;-61
2024/01/31 01:10:20;;;;;;;17.70;8.38;;;;;;;2.22;nan;97435.53;2068256;28;20041;-61
2024/01/31 01:11:21;;;;;;;14.07;7.60;;;;;;;2.29;nan;97431.31;2068055;28;20482;-61
2024/01/31 01:12:22;;;;;;;14.18;7.72;;;;;;;2.33;nan;97439.03;2068014;28;20031;-61
2024/01/31 01:13:24;;;;;;;13.32;7.68;;;;;;;2.38;nan;97427.13;2067601;28;20054;-61
2024/01/31 01:14:25;;;;;;;13.77;8.52;;;;;;;2.39;nan;97439.09;2067360;28;20053;-61
2024/01/31 01:15:26;;;;;;;14.18;7.93;;;;;;;2.40;nan;97434.81;2068179;28;20061;-61
2024/01/31 01:16:27;;;;;;;16.83;7.40;;;;;;;2.36;nan;97431.38;2068352;28;20034;-60
2024/01/31 01:17:28;;;;;;;12.45;7.30;;;;;;;2.47;nan;97435.72;2068357;28;20061;-61
2024/01/31 01:18:29;;;;;;;13.30;7.03;;;;;;;2.48;nan;97437.44;2068343;28;20042;-61
2024/01/31 01:19:31;;;;;;;11.55;6.95;;;;;;;2.47;nan;97428.88;2067994;28;20030;-61
2024/01/31 01:20:32;;;;;;;12.95;7.88;;;;;;;2.45;nan;97430.56;2068033;28;20049;-61
2024/01/31 01:21:33;;;;;;;13.15;8.02;;;;;;;2.43;nan;97429.69;2068087;28;20042;-61
2024/01/31 01:22:35;;;;;;;13.73;8.60;;;;;;;2.36;nan;97439.06;2067993;28;20470;-61
2024/01/31 01:23:36;;;;;;;15.65;9.60;;;;;;;2.31;nan;97435.59;2068131;28;20450;-61
2024/01/31 01:24:37;;;;;;;18.00;9.68;;;;;;;2.25;nan;97435.56;2068134;28;20042;-61
2024/01/31 01:25:38;;;;;;;14.38;9.13;;;;;;;2.18;nan;97437.19;2068131;28;20042;-62
2024/01/31 01:26:40;;;;;;;15.50;9.43;;;;;;;2.11;nan;97444.81;2068057;28;20046;-61
2024/01/31 01:27:45;;;;;;;13.90;7.78;;;;;;;2.01;nan;97445.59;2067299;28;20058;-61
2024/01/31 01:28:46;;;;;;;15.80;8.75;;;;;;;1.93;nan;97441.25;2067427;28;20058;-61
2024/01/31 01:29:47;;;;;;;12.73;7.82;;;;;;;1.88;nan;97440.34;2067837;28;20053;-61
2024/01/31 01:30:48;;;;;;;12.07;7.85;;;;;;;1.86;nan;97446.28;2068073;28;20046;-61
2024/01/31 01:31:49;;;;;;;13.50;8.60;;;;;;;1.81;nan;97447.94;2068073;28;20058;-61
2024/01/31 01:32:51;;;;;;;11.98;7.95;;;;;;;1.77;nan;97445.34;2067498;28;20073;-61
2024/01/31 01:33:53;;;;;;;13.93;8.45;;;;;;;1.86;nan;97448.84;2067765;28;20054;-61
2024/01/31 01:34:54;;;;;;;13.30;8.27;;;;;;;2.25;nan;97447.53;2068001;28;20054;-61
2024/01/31 01:35:55;;;;;;;12.43;8.73;;;;;;;2.55;nan;97444.34;2067919;28;20501;-61
2024/01/31 01:36:56;;;;;;;12.15;7.43;;;;;;;2.50;nan;97446.00;2066750;28;20050;-61
2024/01/31 01:37:57;;;;;;;11.55;7.72;;;;;;;2.37;nan;97448.47;2066557;28;20038;-61
2024/01/31 01:38:58;;;;;;;14.13;8.25;;;;;;;2.16;nan;97451.69;2066805;28;20042;-61
2024/01/31 01:39:59;;;;;;;13.52;7.90;;;;;;;2.05;nan;97450.75;2066448;28;20054;-60
2024/01/31 01:41:00;;;;;;;12.35;7.68;;;;;;;2.11;nan;97463.63;2066971;28;20431;-61
2024/01/31 01:42:01;;;;;;;14.27;8.38;;;;;;;2.05;nan;97455.88;2066145;28;20050;-62
2024/01/31 01:43:02;;;;;;;15.13;8.32;;;;;;;1.92;nan;97456.59;2066541;28;20058;-61
2024/01/31 01:44:03;;;;;;;14.18;8.63;;;;;;;1.82;nan;97460.78;2049977;29;20046;-61
2024/01/31 01:45:05;;;;;;;13.57;8.43;;;;;;;1.88;nan;97458.28;2049940;28;20495;-61
2024/01/31 01:46:11;;;;;;;16.80;9.23;;;;;;;2.02;nan;97452.44;2066621;28;20054;-61
2024/01/31 01:47:13;;;;;;;16.25;7.93;;;;;;;2.33;nan;97449.31;2057632;28;20049;-61
2024/01/31 01:48:15;;;;;;;15.55;7.90;;;;;;;2.28;nan;97445.84;2049461;28;20113;-61
2024/01/31 01:49:16;;;;;;;14.38;7.90;;;;;;;2.14;nan;97442.31;2057588;28;20046;-61
2024/01/31 01:50:20;;;;;;;12.88;7.80;;;;;;;2.16;nan;97446.56;2057770;28;20455;-61
2024/01/31 01:51:23;;;;;;;11.95;7.72;;;;;;;2.15;nan;97449.13;2058000;28;20050;-61
2024/01/31 01:52:24;;;;;;;14.13;8.13;;;;;;;2.13;nan;97448.25;2057422;28;20153;-61
2024/01/31 01:53:25;;;;;;;15.77;8.65;;;;;;;2.18;nan;97447.44;2065786;28;20046;-61
2024/01/31 01:54:27;;;;;;;13.13;8.15;;;;;;;2.26;nan;97450.09;2066704;28;20034;-61
2024/01/31 01:55:28;;;;;;;14.90;7.15;;;;;;;2.56;nan;97443.47;2066245;28;20062;-61
2024/01/31 01:56:29;;;;;;;13.93;8.45;;;;;;;2.57;nan;97442.66;2049621;29;20487;-61
2024/01/31 01:57:31;;;;;;;12.15;7.85;;;;;;;2.45;nan;97453.66;2050092;28;20031;-61
2024/01/31 01:58:34;;;;;;;17.08;8.32;;;;;;;2.36;nan;97439.06;2058105;28;20034;-61
2024/01/31 01:59:35;;;;;;;14.93;8.38;;;;;;;2.46;nan;97446.81;2058041;28;20521;-61
2024/01/31 02:00:38;;;;;;;12.98;8.20;;;;;;;2.43;nan;97443.41;2049926;29;20054;-61
2024/01/31 02:01:39;;;;;;;12.85;7.57;;;;;;;2.39;nan;97444.22;2050159;28;20055;-61
2024/01/31 02:02:40;;;;;;;14.65;8.50;;;;;;;2.32;nan;97441.59;2058037;28;20047;-60
2024/01/31 02:03:42;;;;;;;12.63;7.68;;;;;;;2.24;nan;97438.94;2057952;28;20525;-61
2024/01/31 02:04:43;;;;;;;12.45;7.28;;;;;;;2.20;nan;97437.22;2057483;28;20050;-61
2024/01/31 02:05:44;;;;;;;13.40;7.95;;;;;;;2.19;nan;97441.50;2058148;28;20399;-61
2024/01/31 02:06:45;;;;;;;13.77;8.77;;;;;;;2.13;nan;97435.44;2066553;28;20050;-60
2024/01/31 02:07:46;;;;;;;14.10;8.25;;;;;;;2.10;nan;97448.22;2066446;28;20046;-61
2024/01/31 02:08:47;;;;;;;14.45;8.43;;;;;;;2.01;nan;97446.44;2057988;28;20042;-61
2024/01/31 02:09:49;;;;;;;13.98;8.80;;;;;;;1.92;nan;97441.22;2049913;29;20058;-61
2024/01/31 02:10:50;;;;;;;13.70;8.48;;;;;;;1.88;nan;97442.06;2041973;29;20111;-61
2024/01/31 02:11:51;;;;;;;14.65;8.38;;;;;;;1.89;nan;97438.63;2058000;28;20475;-61
2024/01/31 02:12:52;;;;;;;15.27;8.50;;;;;;;1.89;nan;97442.03;2066302;28;20057;-61
2024/01/31 02:13:53;;;;;;;13.55;8.60;;;;;;;1.92;nan;97449.75;2066715;28;20059;-61
2024/01/31 02:14:56;;;;;;;14.40;8.57;;;;;;;1.85;nan;97439.47;2066838;28;20062;-60
2024/01/31 02:15:57;;;;;;;13.23;8.55;;;;;;;1.77;nan;97447.06;2057911;28;20434;-60
2024/01/31 02:16:59;;;;;;;14.68;8.73;;;;;;;1.71;nan;97445.31;2050857;28;20058;-59
2024/01/31 02:18:00;;;;;;;16.08;9.07;;;;;;;1.62;nan;97446.88;2057820;28;20042;-61
2024/01/31 02:19:01;;;;;;;14.38;8.68;;;;;;;1.51;nan;97445.06;2066136;28;20050;-61
2024/01/31 02:20:03;;;;;;;12.63;8.15;;;;;;;1.47;nan;97443.31;2066267;28;20053;-61
2024/01/31 02:21:04;;;;;;;18.20;9.55;;;;;;;1.46;nan;97444.16;2065887;28;20404;-61
2024/01/31 02:22:06;;;;;;;14.55;9.05;;;;;;;1.46;nan;97446.72;2066342;28;20050;-61
2024/01/31 02:23:07;;;;;;;18.00;8.55;;;;;;;1.46;nan;97449.25;2066527;28;20065;-61
2024/01/31 02:24:08;;;;;;;12.27;8.45;;;;;;;1.45;nan;97441.59;2057547;28;20054;-61
2024/01/31 02:25:15;;;;;;;14.77;8.98;;;;;;;1.45;nan;97447.56;2057730;28;20039;-61
2024/01/31 02:26:16;;;;;;;15.85;8.85;;;;;;;1.43;nan;97449.22;2066245;28;20045;-61
2024/01/31 02:27:17;;;;;;;15.60;8.55;;;;;;;1.52;nan;97444.25;2066629;28;20038;-61
2024/01/31 02:28:18;;;;;;;16.05;9.15;;;;;;;1.50;nan;97445.91;2066055;28;20522;-61
2024/01/31 02:29:19;;;;;;;16.60;9.45;;;;;;;1.48;nan;97442.47;2066301;28;20030;-61
2024/01/31 02:30:21;;;;;;;16.30;8.77;;;;;;;1.41;nan;97443.22;2066417;28;20073;-61
2024/01/31 02:31:22;;;;;;;16.88;8.88;;;;;;;1.35;nan;97444.88;2065770;28;20039;-61
2024/01/31 02:32:23;;;;;;;16.88;9.32;;;;;;;1.25;nan;97441.31;2065955;28;20050;-61
2024/01/31 02:33:24;;;;;;;14.88;9.18;;;;;;;1.22;nan;97447.25;2066393;28;20046;-61
2024/01/31 02:34:25;;;;;;;14.73;9.40;;;;;;;1.22;nan;97447.25;2066416;28;20036;-61
2024/01/31 02:35:26;;;;;;;16.92;9.38;;;;;;;1.17;nan;97446.34;2066206;28;20034;-61
2024/01/31 02:36:27;;;;;;;14.07;8.63;;;;;;;1.15;nan;97450.59;2066355;28;20087;-61
2024/01/31 02:37:28;;;;;;;15.18;9.23;;;;;;;1.12;nan;97444.56;2065971;28;20450;-61
2024/01/31 02:38:29;;;;;;;15.90;9.50;;;;;;;1.06;nan;97446.22;2065726;28;20061;-60
2024/01/31 02:39:31;;;;;;;16.77;9.48;;;;;;;1.03;nan;97453.00;2066553;28;20038;-62
2024/01/31 02:40:32;;;;;;;17.88;9.65;;;;;;;1.00;nan;97448.69;2066210;28;20030;-61
2024/01/31 02:41:33;;;;;;;12.88;8.10;;;;;;;1.00;nan;97446.13;2065622;28;20042;-61
2024/01/31 02:42:34;;;;;;;18.33;9.18;;;;;;;1.03;nan;97438.50;2066388;28;20034;-61
2024/01/31 02:43:35;;;;;;;15.23;8.75;;;;;;;1.00;nan;97441.03;2057800;28;20046;-61
2024/01/31 02:44:36;;;;;;;17.42;9.60;;;;;;;1.01;nan;97442.72;2057160;28;20054;-61
2024/01/31 02:45:37;;;;;;;15.07;9.13;;;;;;;1.17;nan;97443.78;2066309;28;20368;-61
2024/01/31 02:46:38;;;;;;;16.75;9.25;;;;;;;1.27;nan;97440.50;2065689;28;20042;-61
2024/01/31 02:47:39;;;;;;;13.93;8.88;;;;;;;1.28;nan;97436.25;2066427;28;20042;-61
2024/01/31 02:48:40;;;;;;;15.23;9.18;;;;;;;1.31;nan;97447.41;2065274;28;20463;-61
2024/01/31 02:49:42;;;;;;;18.70;9.13;;;;;;;1.32;nan;97443.13;2066210;28;20030;-61
2024/01/31 02:50:43;;;;;;;13.25;8.68;;;;;;;1.30;nan;97445.66;2066129;28;20081;-61
2024/01/31 02:51:44;;;;;;;13.98;8.45;;;;;;;1.29;nan;97441.41;2066351;28;20042;-60
2024/01/31 02:52:45;;;;;;;15.10;9.23;;;;;;;1.30;nan;97445.66;2065597;28;20050;-61
2024/01/31 02:53:46;;;;;;;17.83;9.15;;;;;;;1.28;nan;97444.81;2066227;28;20053;-62
2024/01/31 02:54:51;;;;;;;15.25;9.20;;;;;;;1.23;nan;97443.00;2065627;28;20384;-61
2024/01/31 02:55:52;;;;;;;17.25;9.60;;;;;;;1.22;nan;97447.25;2065611;28;20043;-61
2024/01/31 02:56:53;;;;;;;13.52;8.77;;;;;;;1.20;nan;97450.66;2065396;28;20050;-61
2024/01/31 02:57:54;;;;;;;17.70;8.65;;;;;;;1.21;nan;97445.56;2065799;28;20042;-60
2024/01/31 02:58:55;;;;;;;15.32;9.43;;;;;;;1.27;nan;97439.66;2065424;28;20061;-61
2024/01/31 02:59:56;;;;;;;14.25;9.02;;;;;;;1.28;nan;97438.81;2065512;28;20054;-61
2024/01/31 03:00:58;;;;;;;14.05;8.73;;;;;;;1.26;nan;97448.19;2065384;28;20046;-61
2024/01/31 03:01:59;;;;;;;17.80;9.73;;;;;;;1.27;nan;97437.09;2065900;28;20057;-61
2024/01/31 03:03:00;;;;;;;13.98;8.65;;;;;;;1.29;nan;97433.72;2065969;28;20403;-61
2024/01/31 03:04:01;;;;;;;18.17;9.52;;;;;;;1.28;nan;97437.13;2065541;28;20050;-61
2024/01/31 03:05:02;;;;;;;15.93;9.05;;;;;;;1.32;nan;97432.91;2066071;28;20042;-61
2024/01/31 03:06:04;;;;;;;15.30;8.05;;;;;;;1.29;nan;97440.53;2066015;28;20034;-61
2024/01/31 03:07:05;;;;;;;14.98;9.10;;;;;;;1.32;nan;97440.56;2065771;28;20061;-61
2024/01/31 03:08:06;;;;;;;15.98;9.85;;;;;;;1.37;nan;97438.94;2065424;28;20499;-61
2024/01/31 03:09:08;;;;;;;16.38;9.18;;;;;;;1.40;nan;97449.19;2066315;28;20038;-61
2024/01/31 03:10:09;;;;;;;15.45;9.02;;;;;;;1.42;nan;97449.22;2065496;28;20058;-61
2024/01/31 03:11:10;;;;;;;15.02;8.75;;;;;;;1.37;nan;97449.16;2065732;28;20402;-62
2024/01/31 03:12:11;;;;;;;19.08;9.52;;;;;;;1.34;nan;97446.56;2065745;28;20050;-60
2024/01/31 03:13:14;;;;;;;13.85;9.23;;;;;;;1.31;nan;97449.09;2065689;28;20050;-61
2024/01/31 03:14:15;;;;;;;15.00;8.52;;;;;;;1.32;nan;97450.81;2065970;28;20046;-61
2024/01/31 03:15:16;;;;;;;16.48;10.05;;;;;;;1.37;nan;97445.75;2066079;28;20046;-61
2024/01/31 03:16:17;;;;;;;18.75;9.40;;;;;;;1.31;nan;97449.09;2065685;28;20061;-61
2024/01/31 03:17:18;;;;;;;16.83;10.13;;;;;;;1.31;nan;97447.41;2065426;28;20045;-62
2024/01/31 03:18:19;;;;;;;18.35;9.73;;;;;;;1.34;nan;97446.56;2066127;28;20052;-61
2024/01/31 03:19:21;;;;;;;16.10;9.75;;;;;;;1.38;nan;97448.31;2065702;28;20046;-61
2024/01/31 03:20:22;;;;;;;14.95;9.15;;;;;;;1.41;nan;97444.94;2065948;28;20042;-61
2024/01/31 03:21:23;;;;;;;16.20;9.60;;;;;;;1.40;nan;97449.19;2065965;28;20416;-61
2024/01/31 03:22:24;;;;;;;16.30;9.23;;;;;;;1.45;nan;97449.25;2065841;28;20034;-61
2024/01/31 03:23:25;;;;;;;13.95;8.55;;;;;;;1.48;nan;97449.28;2066240;28;20047;-61
2024/01/31 03:24:26;;;;;;;14.23;8.80;;;;;;;1.48;nan;97459.53;2066028;28;20372;-61
2024/01/31 03:25:27;;;;;;;14.35;8.73;;;;;;;1.53;nan;97455.34;2066261;28;20034;-61
2024/01/31 03:26:28;;;;;;;16.95;9.27;;;;;;;1.56;nan;97451.94;2066036;28;20061;-61
2024/01/31 03:27:29;;;;;;;16.17;8.77;;;;;;;1.62;nan;97465.66;2065675;28;20042;-61
2024/01/31 03:28:32;;;;;;;13.77;9.10;;;;;;;1.68;nan;97459.75;2066079;28;20030;-61
2024/01/31 03:29:33;;;;;;;17.75;8.95;;;;;;;1.70;nan;97458.94;2065861;28;20053;-61
2024/01/31 03:30:34;;;;;;;12.65;7.97;;;;;;;1.73;nan;97460.66;2065235;28;20054;-61
2024/01/31 03:31:35;;;;;;;14.60;9.13;;;;;;;1.75;nan;97459.00;2065223;28;20071;-61
2024/01/31 03:32:36;;;;;;;16.00;8.38;;;;;;;1.79;nan;97459.88;2065981;28;20038;-61
2024/01/31 03:33:37;;;;;;;14.05;8.10;;;;;;;1.81;nan;97460.75;2065859;28;20034;-61
2024/01/31 03:34:38;;;;;;;14.38;8.30;;;;;;;1.84;nan;97471.03;2065949;28;20034;-61
2024/01/31 03:35:39;;;;;;;13.07;8.02;;;;;;;1.89;nan;97462.53;2065460;28;20054;-61
2024/01/31 03:36:41;;;;;;;13.93;7.65;;;;;;;1.94;nan;97466.00;2066017;28;20035;-61
2024/01/31 03:37:43;;;;;;;15.20;8.60;;;;;;;2.01;nan;97460.97;2048834;29;20447;-62
2024/01/31 03:38:44;;;;;;;13.77;8.30;;;;;;;2.01;nan;97460.97;2049281;28;20050;-61
2024/01/31 03:39:45;;;;;;;13.63;8.07;;;;;;;1.93;nan;97461.75;2065247;28;20495;-61
2024/01/31 03:40:46;;;;;;;13.00;8.55;;;;;;;1.81;nan;97453.91;2065875;28;20046;-61
2024/01/31 03:41:49;;;;;;;17.40;8.00;;;;;;;1.81;nan;97455.63;2065415;28;20058;-61
2024/01/31 03:42:50;;;;;;;13.30;7.40;;;;;;;1.86;nan;97454.81;2065397;28;20514;-61
2024/01/31 03:43:51;;;;;;;12.88;7.68;;;;;;;1.88;nan;97453.16;2057252;28;20043;-61
2024/01/31 03:44:53;;;;;;;15.38;8.27;;;;;;;1.89;nan;97454.00;2057311;28;20082;-61
2024/01/31 03:45:54;;;;;;;14.43;8.45;;;;;;;1.86;nan;97459.09;2065108;28;20054;-61
2024/01/31 03:46:55;;;;;;;13.18;7.85;;;;;;;1.84;nan;97460.78;2065098;28;20057;-61
2024/01/31 03:47:56;;;;;;;13.93;8.75;;;;;;;1.80;nan;97454.78;2065770;28;20046;-62
2024/01/31 03:48:57;;;;;;;15.35;8.52;;;;;;;1.76;nan;97456.44;2064997;28;20041;-61
2024/01/31 03:49:58;;;;;;;13.02;8.23;;;;;;;1.68;nan;97452.06;2065129;28;20162;-61
2024/01/31 03:50:59;;;;;;;13.77;8.57;;;;;;;1.67;nan;97456.34;2066003;28;20482;-61
2024/01/31 03:52:00;;;;;;;14.50;8.30;;;;;;;1.59;nan;97459.66;2065706;28;20038;-61
2024/01/31 03:53:02;;;;;;;16.10;9.15;;;;;;;1.51;nan;97457.88;2065503;28;20061;-62
2024/01/31 03:54:03;;;;;;;13.13;8.45;;;;;;;1.52;nan;97451.03;2056647;28;20399;-61
2024/01/31 03:55:04;;;;;;;14.52;8.50;;;;;;;1.51;nan;97460.41;2057168;28;20045;-61
2024/01/31 03:56:06;;;;;;;14.60;8.80;;;;;;;1.53;nan;97460.44;2065718;28;20054;-61
2024/01/31 03:57:07;;;;;;;12.68;8.38;;;;;;;1.53;nan;97455.34;2065813;28;20042;-61
2024/01/31 03:58:08;;;;;;;15.75;8.20;;;;;;;1.41;nan;97456.03;2065886;28;20046;-61
2024/01/31 03:59:09;;;;;;;14.73;8.63;;;;;;;1.29;nan;97458.47;2065204;28;20406;-61
2024/01/31 04:00:11;;;;;;;15.55;8.57;;;;;;;1.31;nan;97457.63;2065469;28;20046;-61
2024/01/31 04:01:15;;;;;;;15.73;9.48;;;;;;;1.31;nan;97454.22;2065600;28;20478;-60
2024/01/31 04:02:16;;;;;;;13.90;9.20;;;;;;;1.29;nan;97458.47;2065155;28;20064;-61
2024/01/31 04:03:20;;;;;;;16.05;9.30;;;;;;;1.30;nan;97452.50;2065641;28;20394;-61
2024/01/31 04:04:21;;;;;;;16.20;9.50;;;;;;;1.29;nan;97449.06;2065535;28;20509;-61
2024/01/31 04:05:22;;;;;;;13.43;7.82;;;;;;;1.38;nan;97452.59;2065858;28;20034;-61
2024/01/31 04:06:23;;;;;;;16.88;9.25;;;;;;;1.41;nan;97453.47;2065550;28;20046;-61
2024/01/31 04:07:25;;;;;;;15.68;9.52;;;;;;;1.40;nan;97454.31;2065088;28;20046;-62
2024/01/31 04:08:26;;;;;;;14.73;8.85;;;;;;;1.43;nan;97449.22;2056889;28;20046;-61
2024/01/31 04:09:28;;;;;;;16.52;10.23;;;;;;;1.47;nan;97450.13;2056537;28;20046;-61
2024/01/31 04:10:29;;;;;;;17.80;9.52;;;;;;;1.53;nan;97451.06;2065002;28;20057;-61
2024/01/31 04:11:34;;;;;;;15.55;8.68;;;;;;;1.59;nan;97447.72;2065639;28;20030;-61
2024/01/31 04:12:35;;;;;;;17.42;9.05;;;;;;;1.61;nan;97451.16;2065007;28;20046;-61
2024/01/31 04:13:37;;;;;;;17.00;9.02;;;;;;;1.64;nan;97452.91;2065935;28;20474;-61
2024/01/31 04:14:38;;;;;;;15.07;8.88;;;;;;;1.64;nan;97446.06;2065621;28;20037;-61
2024/01/31 04:15:39;;;;;;;15.13;8.77;;;;;;;1.66;nan;97453.78;2065668;28;20041;-61
2024/01/31 04:16:40;;;;;;;13.88;8.93;;;;;;;1.69;nan;97448.69;2065448;28;20402;-61
2024/01/31 04:17:41;;;;;;;13.00;9.00;;;;;;;1.74;nan;97457.28;2065755;28;20047;-60
2024/01/31 04:18:43;;;;;;;13.50;8.63;;;;;;;1.76;nan;97459.00;2065602;28;20042;-61
2024/01/31 04:19:48;;;;;;;13.10;8.55;;;;;;;1.75;nan;97462.41;2065529;28;20064;-61
2024/01/31 04:20:49;;;;;;;13.55;8.38;;;;;;;1.74;nan;97454.72;2064693;28;20054;-61
2024/01/31 04:21:52;;;;;;;18.80;8.50;;;;;;;1.74;nan;97453.00;2064939;28;20379;-61
2024/01/31 04:22:53;;;;;;;14.40;8.73;;;;;;;1.67;nan;97443.53;2056445;28;20058;-61
2024/01/31 04:23:54;;;;;;;15.15;9.18;;;;;;;1.68;nan;97452.91;2057222;28;20435;-61
2024/01/31 04:24:55;;;;;;;14.52;9.40;;;;;;;1.71;nan;97450.41;2065622;28;20045;-61
2024/01/31 04:25:56;;;;;;;15.38;9.57;;;;;;;1.72;nan;97451.28;2065451;28;20060;-61
2024/01/31 04:26:58;;;;;;;15.50;9.43;;;;;;;1.72;nan;97451.28;2065587;28;20399;-60
2024/01/31 04:27:59;;;;;;;16.50;8.98;;;;;;;1.65;nan;97452.03;2065685;28;20034;-61
2024/01/31 04:29:00;;;;;;;14.50;8.73;;;;;;;1.63;nan;97454.59;2065699;28;20038;-61
2024/01/31 04:30:01;;;;;;;14.65;8.95;;;;;;;1.66;nan;97451.22;2065832;28;20038;-60
2024/01/31 04:31:02;;;;;;;14.98;8.70;;;;;;;1.71;nan;97458.09;2065693;28;20046;-61
2024/01/31 04:32:03;;;;;;;15.95;9.07;;;;;;;1.76;nan;97456.44;2065605;28;20050;-61
2024/01/31 04:33:04;;;;;;;14.23;8.95;;;;;;;1.77;nan;97454.75;2065702;28;20045;-61
2024/01/31 04:34:05;;;;;;;15.02;8.95;;;;;;;1.81;nan;97459.03;2065689;28;20038;-61
2024/01/31 04:35:09;;;;;;;14.35;9.32;;;;;;;1.81;nan;97456.47;2065466;28;20046;-61
2024/01/31 04:36:10;;;;;;;16.10;9.93;;;;;;;1.81;nan;97451.34;2065508;28;20042;-61
2024/01/31 04:37:12;;;;;;;14.00;8.75;;;;;;;1.73;nan;97452.97;2065488;28;20042;-61
2024/01/31 04:38:13;;;;;;;15.77;9.75;;;;;;;1.76;nan;97450.44;2065594;28;20057;-60
2024/01/31 04:39:14;;;;;;;16.67;9.70;;;;;;;1.78;nan;97446.22;2065345;28;20046;-61
2024/01/31 04:40:15;;;;;;;17.38;9.68;;;;;;;1.79;nan;97445.34;2065678;28;20038;-61
2024/01/31 04:41:16;;;;;;;14.10;8.23;;;;;;;1.76;nan;97445.31;2065106;28;20065;-61
2024/01/31 04:42:17;;;;;;;15.77;9.00;;;;;;;1.72;nan;97449.56;2065284;28;20122;-61
2024/01/31 04:43:18;;;;;;;17.67;9.43;;;;;;;1.70;nan;97445.25;2065610;28;20054;-61
2024/01/31 04:44:20;;;;;;;15.02;9.63;;;;;;;1.67;nan;97447.81;2065524;28;20030;-61
2024/01/31 04:45:21;;;;;;;14.43;9.43;;;;;;;1.72;nan;97443.59;2065440;28;20049;-61
2024/01/31 04:46:22;;;;;;;17.00;9.45;;;;;;;1.74;nan;97447.88;2065576;28;20046;-61
2024/01/31 04:47:25;;;;;;;14.98;9.23;;;;;;;1.77;nan;97444.50;2064939;28;20042;-60
2024/01/31 04:48:26;;;;;;;16.52;9.70;;;;;;;1.82;nan;97447.97;2063977;28;20053;-61
2024/01/31 04:49:27;;;;;;;14.18;9.07;;;;;;;1.85;nan;97442.88;2065446;28;20034;-61
2024/01/31 04:50:28;;;;;;;15.25;9.10;;;;;;;1.90;nan;97450.63;2065482;28;20034;-61
2024/01/31 04:51:29;;;;;;;15.43;9.00;;;;;;;1.94;nan;97455.75;2065476;28;20022;-61
2024/01/31 04:52:30;;;;;;;16.25;8.45;;;;;;;1.97;nan;97450.66;2065452;28;20399;-61
2024/01/31 04:53:32;;;;;;;15.45;9.77;;;;;;;2.03;nan;97460.13;2065118;28;20058;-61
2024/01/31 04:54:33;;;;;;;14.73;8.98;;;;;;;2.05;nan;97457.56;2065723;28;20049;-61
2024/01/31 04:55:34;;;;;;;13.63;8.55;;;;;;;2.06;nan;97454.16;2065483;28;20038;-61
2024/01/31 04:56:35;;;;;;;14.82;9.48;;;;;;;2.08;nan;97450.75;2064913;28;20047;-61